sensor_id;sensor_type;location;lat;lon;timestamp;P1;durP1;ratioP1;P2;durP2;ratioP2
6926;SDS011;3503;50.07605000;8.86719200;2024-03-02T00:12:24;14.30;;;7.37;;
6926;SDS011;3503;50.07605000;8.86719200;2024-03-02T00:27:28;17.20;;;11.10;;
6926;SDS011;3503;50.07605000;8.86719200;2024-03-02T00:42:32;19.67;;;12.90;;
6926;SDS011;3503;50.07605000;8.86719200;2024-03-02T00:57:36;19.43;;;11.70;;
6926;SDS011;3503;50.07605000;8.86719200;2024-03-02T01:12:39;21.40;;;12.53;;
6926;SDS011;3503;50.07605000;8.86719200;2024-03-02T01:27:42;24.50;;;13.70;;
6926;SDS011;3503;50.07605000;8.86719200;2024-03-02T01:42:45;29.97;;;16.63;;
6926;SDS011;3503;50.07605000;8.86719200;2024-03-02T01:57:48;23.17;;;15.80;;
6926;SDS011;3503;50.07605000;8.86719200;2024-03-02T02:12:52;27.27;;;14.97;;
6926;SDS011;3503;50.07605000;8.86719200;2024-03-02T02:27:55;30.30;;;18.80;;
6926;SDS011;3503;50.07605000;8.86719200;2024-03-02T02:42:58;28.77;;;16.53;;
6926;SDS011;3503;50.07605000;8.86719200;2024-03-02T02:58:01;26.93;;;15.43;;
6926;SDS011;3503;50.07605000;8.86719200;2024-03-02T03:13:04;23.63;;;14.00;;
6926;SDS011;3503;50.07605000;8.86719200;2024-03-02T03:28:09;23.30;;;14.30;;
6926;SDS011;3503;50.07605000;8.86719200;2024-03-02T03:43:12;22.07;;;13.40;;
6926;SDS011;3503;50.07605000;8.86719200;2024-03-02T03:58:15;21.97;;;13.50;;
6926;SDS011;3503;50.07605000;8.86719200;2024-03-02T04:13:20;34.10;;;16.10;;
6926;SDS011;3503;50.07605000;8.86719200;2024-03-02T04:28:23;24.23;;;15.07;;
6926;SDS011;3503;50.07605000;8.86719200;2024-03-02T04:43:26;25.27;;;13.73;;
6926;SDS011;3503;50.07605000;8.86719200;2024-03-02T04:58:29;26.03;;;15.70;;
6926;SDS011;3503;50.07605000;8.86719200;2024-03-02T05:13:32;26.70;;;16.07;;
6926;SDS011;3503;50.07605000;8.86719200;2024-03-02T05:28:36;22.73;;;13.37;;
6926;SDS011;3503;50.07605000;8.86719200;2024-03-02T05:43:39;22.77;;;14.43;;
6926;SDS011;3503;50.07605000;8.86719200;2024-03-02T05:58:42;20.73;;;13.63;;
6926;SDS011;3503;50.07605000;8.86719200;2024-03-02T06:13:59;25.03;;;14.40;;
6926;SDS011;3503;50.07605000;8.86719200;2024-03-02T06:29:04;24.77;;;15.70;;
6926;SDS011;3503;50.07605000;8.86719200;2024-03-02T06:44:07;25.23;;;14.77;;
6926;SDS011;3503;50.07605000;8.86719200;2024-03-02T06:59:10;23.13;;;14.60;;
6926;SDS011;3503;50.07605000;8.86719200;2024-03-02T07:14:13;26.37;;;14.50;;
6926;SDS011;3503;50.07605000;8.86719200;2024-03-02T07:29:16;31.33;;;17.33;;
6926;SDS011;3503;50.07605000;8.86719200;2024-03-02T07:44:19;24.73;;;14.37;;
6926;SDS011;3503;50.07605000;8.86719200;2024-03-02T07:59:22;26.60;;;16.00;;
6926;SDS011;3503;50.07605000;8.86719200;2024-03-02T08:14:25;32.10;;;18.43;;
6926;SDS011;3503;50.07605000;8.86719200;2024-03-02T08:29:28;24.50;;;16.20;;
6926;SDS011;3503;50.07605000;8.86719200;2024-03-02T08:44:31;27.57;;;17.10;;
6926;SDS011;3503;50.07605000;8.86719200;2024-03-02T08:59:34;26.13;;;17.40;;
6926;SDS011;3503;50.07605000;8.86719200;2024-03-02T09:14:37;21.03;;;13.70;;
6926;SDS011;3503;50.07605000;8.86719200;2024-03-02T09:29:41;15.33;;;10.63;;
6926;SDS011;3503;50.07605000;8.86719200;2024-03-02T09:44:44;18.90;;;11.73;;
6926;SDS011;3503;50.07605000;8.86719200;2024-03-02T09:59:48;17.40;;;11.10;;
6926;SDS011;3503;50.07605000;8.86719200;2024-03-02T10:14:51;17.57;;;11.43;;
6926;SDS011;3503;50.07605000;8.86719200;2024-03-02T10:30:06;14.87;;;9.50;;
6926;SDS011;3503;50.07605000;8.86719200;2024-03-02T10:45:10;14.87;;;9.67;;
6926;SDS011;3503;50.07605000;8.86719200;2024-03-02T11:00:18;11.57;;;7.80;;
6926;SDS011;3503;50.07605000;8.86719200;2024-03-02T11:15:26;7.37;;;6.03;;
6926;SDS011;3503;50.07605000;8.86719200;2024-03-02T11:45:57;5.17;;;3.83;;
6926;SDS011;3503;50.07605000;8.86719200;2024-03-02T12:01:01;6.10;;;4.20;;
6926;SDS011;3503;50.07605000;8.86719200;2024-03-02T12:16:04;6.03;;;3.90;;
6926;SDS011;3503;50.07605000;8.86719200;2024-03-02T12:31:08;7.50;;;3.57;;
6926;SDS011;3503;50.07605000;8.86719200;2024-03-02T12:46:11;7.50;;;4.03;;
6926;SDS011;3503;50.07605000;8.86719200;2024-03-02T13:01:14;6.23;;;2.80;;
6926;SDS011;3503;50.07605000;8.86719200;2024-03-02T13:16:20;3.77;;;2.90;;
6926;SDS011;3503;50.07605000;8.86719200;2024-03-02T13:31:23;3.83;;;2.37;;
6926;SDS011;3503;50.07605000;8.86719200;2024-03-02T13:46:26;2.43;;;1.70;;
6926;SDS011;3503;50.07605000;8.86719200;2024-03-02T14:01:29;1.97;;;1.50;;
6926;SDS011;3503;50.07605000;8.86719200;2024-03-02T14:16:32;2.80;;;1.77;;
6926;SDS011;3503;50.07605000;8.86719200;2024-03-02T14:31:35;4.87;;;3.07;;
6926;SDS011;3503;50.07605000;8.86719200;2024-03-02T14:46:38;2.03;;;1.07;;
6926;SDS011;3503;50.07605000;8.86719200;2024-03-02T15:01:41;2.67;;;1.43;;
6926;SDS011;3503;50.07605000;8.86719200;2024-03-02T15:16:43;8.03;;;1.13;;
6926;SDS011;3503;50.07605000;8.86719200;2024-03-02T15:31:46;3.07;;;1.80;;
6926;SDS011;3503;50.07605000;8.86719200;2024-03-02T15:46:49;3.20;;;1.53;;
6926;SDS011;3503;50.07605000;8.86719200;2024-03-02T16:01:52;3.30;;;2.30;;
6926;SDS011;3503;50.07605000;8.86719200;2024-03-02T16:16:55;3.30;;;1.87;;
6926;SDS011;3503;50.07605000;8.86719200;2024-03-02T16:31:59;4.10;;;2.67;;
6926;SDS011;3503;50.07605000;8.86719200;2024-03-02T16:47:02;5.33;;;2.30;;
6926;SDS011;3503;50.07605000;8.86719200;2024-03-02T17:02:06;5.53;;;2.50;;
6926;SDS011;3503;50.07605000;8.86719200;2024-03-02T17:17:09;5.20;;;2.10;;
6926;SDS011;3503;50.07605000;8.86719200;2024-03-02T17:32:12;4.80;;;1.93;;
6926;SDS011;3503;50.07605000;8.86719200;2024-03-02T17:47:15;14.97;;;8.20;;
6926;SDS011;3503;50.07605000;8.86719200;2024-03-02T18:02:18;4.47;;;3.47;;
6926;SDS011;3503;50.07605000;8.86719200;2024-03-02T18:17:21;9.53;;;4.57;;
6926;SDS011;3503;50.07605000;8.86719200;2024-03-02T18:32:24;6.73;;;3.80;;
6926;SDS011;3503;50.07605000;8.86719200;2024-03-02T18:47:28;5.07;;;3.17;;
6926;SDS011;3503;50.07605000;8.86719200;2024-03-02T19:02:31;5.53;;;4.33;;
6926;SDS011;3503;50.07605000;8.86719200;2024-03-02T19:17:34;10.00;;;5.60;;
6926;SDS011;3503;50.07605000;8.86719200;2024-03-02T19:32:37;13.57;;;6.50;;
6926;SDS011;3503;50.07605000;8.86719200;2024-03-02T19:47:39;11.20;;;8.17;;
6926;SDS011;3503;50.07605000;8.86719200;2024-03-02T20:02:44;14.40;;;8.67;;
6926;SDS011;3503;50.07605000;8.86719200;2024-03-02T20:17:47;26.67;;;11.20;;
6926;SDS011;3503;50.07605000;8.86719200;2024-03-02T20:32:50;15.50;;;9.30;;
6926;SDS011;3503;50.07605000;8.86719200;2024-03-02T20:47:53;16.27;;;9.80;;
6926;SDS011;3503;50.07605000;8.86719200;2024-03-02T21:02:56;20.10;;;11.50;;
6926;SDS011;3503;50.07605000;8.86719200;2024-03-02T21:17:59;21.30;;;11.93;;
6926;SDS011;3503;50.07605000;8.86719200;2024-03-02T21:33:03;14.93;;;9.07;;
6926;SDS011;3503;50.07605000;8.86719200;2024-03-02T21:48:06;19.20;;;11.70;;
6926;SDS011;3503;50.07605000;8.86719200;2024-03-02T22:03:10;18.57;;;10.90;;
6926;SDS011;3503;50.07605000;8.86719200;2024-03-02T22:18:13;21.33;;;11.87;;
6926;SDS011;3503;50.07605000;8.86719200;2024-03-02T22:33:16;25.20;;;12.17;;
6926;SDS011;3503;50.07605000;8.86719200;2024-03-02T22:48:19;21.87;;;12.70;;
6926;SDS011;3503;50.07605000;8.86719200;2024-03-02T23:03:22;21.50;;;12.60;;
6926;SDS011;3503;50.07605000;8.86719200;2024-03-02T23:18:25;21.53;;;13.00;;
6926;SDS011;3503;50.07605000;8.86719200;2024-03-02T23:33:29;25.97;;;16.27;;
6926;SDS011;3503;50.07605000;8.86719200;2024-03-02T23:48:31;31.13;;;15.13;;
